sensor_id;sensor_type;location;lat;lon;timestamp;pressure;altitude;pressure_sealevel;temperature;humidity
78773;BME280;68111;44.728;11.290;2023-09-12T00:01:05;101265.53;;;28.91;37.43
78773;BME280;68111;44.728;11.290;2023-09-12T00:03:33;101269.91;;;28.94;37.61
78773;BME280;68111;44.728;11.290;2023-09-12T00:06:02;101258.91;;;28.95;36.99
78773;BME280;68111;44.728;11.290;2023-09-12T00:08:29;101258.03;;;28.95;36.91
78773;BME280;68111;44.728;11.290;2023-09-12T00:11:06;101260.88;;;28.93;36.96
78773;BME280;68111;44.728;11.290;2023-09-12T00:13:37;101264.25;;;28.97;36.78
78773;BME280;68111;44.728;11.290;2023-09-12T00:16:04;101257.94;;;28.96;36.40
78773;BME280;68111;44.728;11.290;2023-09-12T00:18:31;101265.53;;;28.91;36.71
78773;BME280;68111;44.728;11.290;2023-09-12T00:21:01;101260.31;;;28.88;36.83
78773;BME280;68111;44.728;11.290;2023-09-12T00:23:28;101258.56;;;28.87;36.57
78773;BME280;68111;44.728;11.290;2023-09-12T00:25:56;101255.06;;;28.85;36.60
78773;BME280;68111;44.728;11.290;2023-09-12T00:28:23;101255.06;;;28.85;36.69
78773;BME280;68111;44.728;11.290;2023-09-12T00:30:51;101265.25;;;28.82;36.74
78773;BME280;68111;44.728;11.290;2023-09-12T00:33:19;101257.19;;;28.80;36.36
78773;BME280;68111;44.728;11.290;2023-09-12T00:35:46;101263.59;;;28.79;36.17
78773;BME280;68111;44.728;11.290;2023-09-12T00:38:12;101265.44;;;28.79;36.36
78773;BME280;68111;44.728;11.290;2023-09-12T00:40:39;101259.13;;;28.78;36.06
78773;BME280;68111;44.728;11.290;2023-09-12T00:43:06;101252.81;;;28.78;36.00
78773;BME280;68111;44.728;11.290;2023-09-12T00:45:32;101256.59;;;28.75;35.87
78773;BME280;68111;44.728;11.290;2023-09-12T00:48:01;101254.97;;;28.73;35.87
78773;BME280;68111;44.728;11.290;2023-09-12T00:50:31;101254.97;;;28.73;35.95
78773;BME280;68111;44.728;11.290;2023-09-12T00:52:59;101260.59;;;28.70;36.28
78773;BME280;68111;44.728;11.290;2023-09-12T00:55:29;101255.25;;;28.68;36.26
78773;BME280;68111;44.728;11.290;2023-09-12T00:57:58;101254.59;;;28.64;36.49
78773;BME280;68111;44.728;11.290;2023-09-12T01:00:25;101259.16;;;28.64;36.01
78773;BME280;68111;44.728;11.290;2023-09-12T01:02:52;101244.69;;;28.63;36.09
78773;BME280;68111;44.728;11.290;2023-09-12T01:05:21;101251.09;;;28.62;35.89
78773;BME280;68111;44.728;11.290;2023-09-12T01:07:49;101246.63;;;28.61;35.96
78773;BME280;68111;44.728;11.290;2023-09-12T01:10:15;101252.06;;;28.61;36.25
78773;BME280;68111;44.728;11.290;2023-09-12T01:12:42;101251.38;;;28.58;35.99
78773;BME280;68111;44.728;11.290;2023-09-12T01:15:10;101247.88;;;28.56;36.27
78773;BME280;68111;44.728;11.290;2023-09-12T01:17:42;101248.06;;;28.53;36.09
78773;BME280;68111;44.728;11.290;2023-09-12T01:20:31;101248.28;;;28.50;36.03
78773;BME280;68111;44.728;11.290;2023-09-12T01:23:14;101251.09;;;28.48;36.04
78773;BME280;68111;44.728;11.290;2023-09-12T01:28:33;101245.84;;;28.45;36.07
78773;BME280;68111;44.728;11.290;2023-09-12T01:31:23;101253.13;;;28.45;36.21
78773;BME280;68111;44.728;11.290;2023-09-12T01:33:55;101244.09;;;28.44;36.12
78773;BME280;68111;44.728;11.290;2023-09-12T01:36:23;101253.22;;;28.43;36.46
78773;BME280;68111;44.728;11.290;2023-09-12T01:38:50;101256.06;;;28.42;35.98
78773;BME280;68111;44.728;11.290;2023-09-12T01:41:18;101252.56;;;28.40;36.26
78773;BME280;68111;44.728;11.290;2023-09-12T01:43:46;101243.44;;;28.41;36.07
78773;BME280;68111;44.728;11.290;2023-09-12T01:46:15;101253.44;;;28.40;35.93
78773;BME280;68111;44.728;11.290;2023-09-12T01:48:44;101251.69;;;28.39;35.98
78773;BME280;68111;44.728;11.290;2023-09-12T01:51:12;101246.25;;;28.39;35.84
78773;BME280;68111;44.728;11.290;2023-09-12T01:53:41;101256.16;;;28.40;36.34
78773;BME280;68111;44.728;11.290;2023-09-12T01:56:11;101261.69;;;28.39;36.20
78773;BME280;68111;44.728;11.290;2023-09-12T01:58:38;101259.06;;;28.37;36.02
78773;BME280;68111;44.728;11.290;2023-09-12T02:01:05;101260.03;;;28.36;35.98
78773;BME280;68111;44.728;11.290;2023-09-12T02:03:32;101250.13;;;28.35;36.36
78773;BME280;68111;44.728;11.290;2023-09-12T02:05:59;101261.31;;;28.30;36.25
78773;BME280;68111;44.728;11.290;2023-09-12T02:08:26;101268.69;;;28.28;36.47
78773;BME280;68111;44.728;11.290;2023-09-12T02:10:52;101263.34;;;28.27;36.40
78773;BME280;68111;44.728;11.290;2023-09-12T02:13:19;101270.72;;;28.25;36.49
78773;BME280;68111;44.728;11.290;2023-09-12T02:15:46;101274.41;;;28.24;36.21
78773;BME280;68111;44.728;11.290;2023-09-12T02:18:14;101269.94;;;28.23;36.39
78773;BME280;68111;44.728;11.290;2023-09-12T02:20:41;101262.72;;;28.22;36.64
78773;BME280;68111;44.728;11.290;2023-09-12T02:23:11;101274.56;;;28.21;36.39
78773;BME280;68111;44.728;11.290;2023-09-12T02:25:37;101267.59;;;28.17;36.72
78773;BME280;68111;44.728;11.290;2023-09-12T02:28:04;101271.28;;;28.16;36.80
78773;BME280;68111;44.728;11.290;2023-09-12T02:30:31;101266.03;;;28.13;36.55
78773;BME280;68111;44.728;11.290;2023-09-12T02:32:58;101268.75;;;28.13;36.42
78773;BME280;68111;44.728;11.290;2023-09-12T02:35:27;101264.47;;;28.09;36.78
78773;BME280;68111;44.728;11.290;2023-09-12T02:37:55;101268.16;;;28.08;36.73
78773;BME280;68111;44.728;11.290;2023-09-12T02:40:21;101268.25;;;28.06;36.61
78773;BME280;68111;44.728;11.290;2023-09-12T02:42:48;101271.94;;;28.05;37.14
78773;BME280;68111;44.728;11.290;2023-09-12T02:45:15;101273.78;;;28.04;36.75
78773;BME280;68111;44.728;11.290;2023-09-12T02:47:42;101270.28;;;28.02;37.10
78773;BME280;68111;44.728;11.290;2023-09-12T02:50:12;101278.53;;;28.01;36.95
78773;BME280;68111;44.728;11.290;2023-09-12T02:52:39;101275.91;;;27.99;36.85
78773;BME280;68111;44.728;11.290;2023-09-12T02:55:06;101270.69;;;27.96;37.16
78773;BME280;68111;44.728;11.290;2023-09-12T02:57:33;101276.22;;;27.95;36.81
78773;BME280;68111;44.728;11.290;2023-09-12T03:00:00;101272.63;;;27.94;37.25
78773;BME280;68111;44.728;11.290;2023-09-12T03:02:27;101267.38;;;27.91;37.20
78773;BME280;68111;44.728;11.290;2023-09-12T03:04:56;101267.56;;;27.88;37.04
78773;BME280;68111;44.728;11.290;2023-09-12T03:07:22;101266.88;;;27.85;37.28
78773;BME280;68111;44.728;11.290;2023-09-12T03:09:50;101262.50;;;27.82;37.63
78773;BME280;68111;44.728;11.290;2023-09-12T03:12:17;101260.75;;;27.81;37.29
78773;BME280;68111;44.728;11.290;2023-09-12T03:14:44;101255.41;;;27.80;37.46
78773;BME280;68111;44.728;11.290;2023-09-12T03:17:10;101272.69;;;27.79;37.59
78773;BME280;68111;44.728;11.290;2023-09-12T03:19:37;101267.44;;;27.76;37.47
78773;BME280;68111;44.728;11.290;2023-09-12T03:22:04;101264.81;;;27.74;37.36
78773;BME280;68111;44.728;11.290;2023-09-12T03:24:30;101264.91;;;27.72;37.29
78773;BME280;68111;44.728;11.290;2023-09-12T03:26:58;101260.34;;;27.73;37.24
78773;BME280;68111;44.728;11.290;2023-09-12T03:29:25;101270.25;;;27.74;37.33
78773;BME280;68111;44.728;11.290;2023-09-12T03:31:52;101270.25;;;27.74;36.87
78773;BME280;68111;44.728;11.290;2023-09-12T03:34:19;101270.25;;;27.74;37.34
78773;BME280;68111;44.728;11.290;2023-09-12T03:36:45;101261.22;;;27.73;37.42
78773;BME280;68111;44.728;11.290;2023-09-12T03:39:12;101260.44;;;27.71;37.55
78773;BME280;68111;44.728;11.290;2023-09-12T03:41:39;101271.41;;;27.70;37.40
78773;BME280;68111;44.728;11.290;2023-09-12T03:44:06;101262.47;;;27.68;37.36
78773;BME280;68111;44.728;11.290;2023-09-12T03:46:33;101267.13;;;27.66;37.36
78773;BME280;68111;44.728;11.290;2023-09-12T03:49:01;101268.19;;;27.63;37.37
78773;BME280;68111;44.728;11.290;2023-09-12T03:51:28;101269.25;;;27.61;37.74
78773;BME280;68111;44.728;11.290;2023-09-12T03:53:56;101271.16;;;27.59;37.64
78773;BME280;68111;44.728;11.290;2023-09-12T03:56:23;101263.09;;;27.57;37.75
78773;BME280;68111;44.728;11.290;2023-09-12T03:58:50;101273.97;;;27.57;37.73
78773;BME280;68111;44.728;11.290;2023-09-12T04:01:17;101276.78;;;27.56;37.79
78773;BME280;68111;44.728;11.290;2023-09-12T04:03:44;101271.53;;;27.53;37.75
78773;BME280;68111;44.728;11.290;2023-09-12T04:06:14;101276.09;;;27.52;37.70
78773;BME280;68111;44.728;11.290;2023-09-12T04:08:41;101273.47;;;27.51;37.66
78773;BME280;68111;44.728;11.290;2023-09-12T04:11:09;101273.66;;;27.48;37.72
78773;BME280;68111;44.728;11.290;2023-09-12T04:13:37;101272.97;;;27.44;37.95
78773;BME280;68111;44.728;11.290;2023-09-12T04:16:03;101279.44;;;27.41;37.64
78773;BME280;68111;44.728;11.290;2023-09-12T04:18:30;101272.25;;;27.40;37.66
78773;BME280;68111;44.728;11.290;2023-09-12T04:20:57;101276.91;;;27.38;38.07
78773;BME280;68111;44.728;11.290;2023-09-12T04:23:25;101281.56;;;27.36;37.84
78773;BME280;68111;44.728;11.290;2023-09-12T04:25:52;101281.75;;;27.33;37.76
78773;BME280;68111;44.728;11.290;2023-09-12T04:28:19;101281.84;;;27.32;38.06
78773;BME280;68111;44.728;11.290;2023-09-12T04:30:46;101283.66;;;27.31;38.25
78773;BME280;68111;44.728;11.290;2023-09-12T04:33:14;101284.59;;;27.30;37.90
78773;BME280;68111;44.728;11.290;2023-09-12T04:35:41;101280.13;;;27.29;37.85
78773;BME280;68111;44.728;11.290;2023-09-12T04:38:08;101287.50;;;27.27;37.97
78773;BME280;68111;44.728;11.290;2023-09-12T04:40:35;101284.97;;;27.24;38.00
78773;BME280;68111;44.728;11.290;2023-09-12T04:43:02;101290.47;;;27.23;38.07
78773;BME280;68111;44.728;11.290;2023-09-12T04:45:32;101286.13;;;27.20;38.01
78773;BME280;68111;44.728;11.290;2023-09-12T04:47:59;101289.78;;;27.19;37.72
78773;BME280;68111;44.728;11.290;2023-09-12T04:50:26;101289.97;;;27.16;38.06
78773;BME280;68111;44.728;11.290;2023-09-12T04:52:53;101298.22;;;27.15;37.89
78773;BME280;68111;44.728;11.290;2023-09-12T04:55:20;101301.00;;;27.13;38.18
78773;BME280;68111;44.728;11.290;2023-09-12T04:57:47;101299.25;;;27.12;38.16
78773;BME280;68111;44.728;11.290;2023-09-12T05:00:13;101299.25;;;27.12;38.06
78773;BME280;68111;44.728;11.290;2023-09-12T05:02:40;101298.47;;;27.10;38.07
78773;BME280;68111;44.728;11.290;2023-09-12T05:05:07;101297.59;;;27.09;38.06
78773;BME280;68111;44.728;11.290;2023-09-12T05:07:34;101295.75;;;27.10;38.19
78773;BME280;68111;44.728;11.290;2023-09-12T05:10:01;101303.91;;;27.10;38.00
78773;BME280;68111;44.728;11.290;2023-09-12T05:12:29;101304.00;;;27.08;38.19
78773;BME280;68111;44.728;11.290;2023-09-12T05:14:56;101313.09;;;27.07;38.59
78773;BME280;68111;44.728;11.290;2023-09-12T05:17:23;101313.34;;;27.03;38.44
78773;BME280;68111;44.728;11.290;2023-09-12T05:19:50;101315.28;;;27.01;38.29
78773;BME280;68111;44.728;11.290;2023-09-12T05:22:16;101318.19;;;26.98;38.38
78773;BME280;68111;44.728;11.290;2023-09-12T05:24:43;101322.78;;;26.96;38.58
78773;BME280;68111;44.728;11.290;2023-09-12T05:27:11;101330.13;;;26.94;38.67
78773;BME280;68111;44.728;11.290;2023-09-12T05:29:38;101330.22;;;26.92;38.77
78773;BME280;68111;44.728;11.290;2023-09-12T05:32:05;101336.69;;;26.90;39.00
78773;BME280;68111;44.728;11.290;2023-09-12T05:34:33;101339.50;;;26.88;39.30
78773;BME280;68111;44.728;11.290;2023-09-12T05:36:59;101334.25;;;26.85;39.35
78773;BME280;68111;44.728;11.290;2023-09-12T05:39:26;101338.09;;;26.81;39.26
78773;BME280;68111;44.728;11.290;2023-09-12T05:41:53;101339.22;;;26.77;39.36
78773;BME280;68111;44.728;11.290;2023-09-12T05:44:21;101337.56;;;26.74;39.33
78773;BME280;68111;44.728;11.290;2023-09-12T05:46:48;101339.47;;;26.72;39.09
78773;BME280;68111;44.728;11.290;2023-09-12T05:49:15;101341.22;;;26.73;38.79
78773;BME280;68111;44.728;11.290;2023-09-12T05:51:42;101343.00;;;26.74;38.63
78773;BME280;68111;44.728;11.290;2023-09-12T05:54:09;101337.56;;;26.74;38.63
78773;BME280;68111;44.728;11.290;2023-09-12T05:56:36;101342.91;;;26.76;38.48
78773;BME280;68111;44.728;11.290;2023-09-12T05:59:03;101335.63;;;26.76;38.00
78773;BME280;68111;44.728;11.290;2023-09-12T06:01:30;101344.56;;;26.78;38.05
78773;BME280;68111;44.728;11.290;2023-09-12T06:03:56;101348.06;;;26.81;37.83
78773;BME280;68111;44.728;11.290;2023-09-12T06:06:24;101345.19;;;26.84;37.60
78773;BME280;68111;44.728;11.290;2023-09-12T06:08:50;101341.59;;;26.83;37.64
78773;BME280;68111;44.728;11.290;2023-09-12T06:11:18;101343.34;;;26.84;37.55
78773;BME280;68111;44.728;11.290;2023-09-12T06:13:44;101355.06;;;26.85;37.77
78773;BME280;68111;44.728;11.290;2023-09-12T06:16:11;101355.06;;;26.85;37.67
78773;BME280;68111;44.728;11.290;2023-09-12T06:18:38;101358.75;;;26.84;37.89
78773;BME280;68111;44.728;11.290;2023-09-12T06:21:05;101356.81;;;26.86;37.83
78773;BME280;68111;44.728;11.290;2023-09-12T06:23:35;101360.50;;;26.85;37.79
78773;BME280;68111;44.728;11.290;2023-09-12T06:26:02;101367.69;;;26.86;37.80
78773;BME280;68111;44.728;11.290;2023-09-12T06:28:30;101364.00;;;26.87;37.88
78773;BME280;68111;44.728;11.290;2023-09-12T06:30:58;101368.38;;;26.89;37.64
78773;BME280;68111;44.728;11.290;2023-09-12T06:33:26;101364.72;;;26.90;37.69
78773;BME280;68111;44.728;11.290;2023-09-12T06:35:53;101371.00;;;26.91;38.09
78773;BME280;68111;44.728;11.290;2023-09-12T06:38:21;101373.63;;;26.92;37.79
78773;BME280;68111;44.728;11.290;2023-09-12T06:40:48;101373.63;;;26.92;37.69
78773;BME280;68111;44.728;11.290;2023-09-12T06:43:15;101378.00;;;26.95;37.96
78773;BME280;68111;44.728;11.290;2023-09-12T06:45:42;101386.06;;;26.96;37.70
78773;BME280;68111;44.728;11.290;2023-09-12T06:48:09;101379.63;;;26.99;37.61
78773;BME280;68111;44.728;11.290;2023-09-12T06:50:36;101377.69;;;27.01;37.77
78773;BME280;68111;44.728;11.290;2023-09-12T06:53:05;101375.78;;;27.03;37.58
78773;BME280;68111;44.728;11.290;2023-09-12T06:55:34;101373.84;;;27.05;37.63
78773;BME280;68111;44.728;11.290;2023-09-12T06:58:01;101374.72;;;27.05;37.98
78773;BME280;68111;44.728;11.290;2023-09-12T07:00:28;101377.34;;;27.07;38.11
78773;BME280;68111;44.728;11.290;2023-09-12T07:02:55;101372.88;;;27.06;38.14
78773;BME280;68111;44.728;11.290;2023-09-12T07:05:22;101379.19;;;27.06;38.57
78773;BME280;68111;44.728;11.290;2023-09-12T07:07:49;101372.81;;;27.07;38.59
78773;BME280;68111;44.728;11.290;2023-09-12T07:10:15;101380.84;;;27.09;38.77
78773;BME280;68111;44.728;11.290;2023-09-12T07:12:52;101376.13;;;27.13;38.50
78773;BME280;68111;44.728;11.290;2023-09-12T07:15:20;101386.81;;;27.16;38.64
78773;BME280;68111;44.728;11.290;2023-09-12T07:17:47;101390.31;;;27.18;38.71
78773;BME280;68111;44.728;11.290;2023-09-12T07:20:14;101385.59;;;27.21;38.77
78773;BME280;68111;44.728;11.290;2023-09-12T07:22:42;101387.34;;;27.22;38.77
78773;BME280;68111;44.728;11.290;2023-09-12T07:25:09;101394.34;;;27.26;38.46
78773;BME280;68111;44.728;11.290;2023-09-12T07:27:38;101398.72;;;27.29;38.66
78773;BME280;68111;44.728;11.290;2023-09-12T07:30:06;101398.59;;;27.32;38.89
78773;BME280;68111;44.728;11.290;2023-09-12T07:32:33;101405.69;;;27.34;39.13
78773;BME280;68111;44.728;11.290;2023-09-12T07:35:00;101405.06;;;27.45;39.17
78773;BME280;68111;44.728;11.290;2023-09-12T07:37:28;101403.22;;;27.61;39.25
78773;BME280;68111;44.728;11.290;2023-09-12T07:39:55;101403.03;;;27.80;38.89
78773;BME280;68111;44.728;11.290;2023-09-12T07:42:23;101402.53;;;28.33;38.69
78773;BME280;68111;44.728;11.290;2023-09-12T07:44:50;101407.13;;;29.18;36.89
78773;BME280;68111;44.728;11.290;2023-09-12T07:47:17;101403.97;;;29.39;36.38
78773;BME280;68111;44.728;11.290;2023-09-12T07:49:44;101413.44;;;29.33;36.26
78773;BME280;68111;44.728;11.290;2023-09-12T07:52:11;101418.22;;;29.15;36.32
78773;BME280;68111;44.728;11.290;2023-09-12T07:54:38;101418.44;;;28.98;36.66
78773;BME280;68111;44.728;11.290;2023-09-12T07:57:04;101416.69;;;28.83;36.83
78773;BME280;68111;44.728;11.290;2023-09-12T07:59:31;101418.41;;;28.70;37.56
78773;BME280;68111;44.728;11.290;2023-09-12T08:01:58;101421.78;;;28.59;37.61
78773;BME280;68111;44.728;11.290;2023-09-12T08:04:24;101414.09;;;28.51;37.69
78773;BME280;68111;44.728;11.290;2023-09-12T08:06:51;101420.81;;;28.46;37.46
78773;BME280;68111;44.728;11.290;2023-09-12T08:09:48;101416.63;;;28.40;37.76
78773;BME280;68111;44.728;11.290;2023-09-12T08:12:11;101420.31;;;28.39;37.66
78773;BME280;68111;44.728;11.290;2023-09-12T08:14:37;101417.78;;;28.36;38.12
78773;BME280;68111;44.728;11.290;2023-09-12T08:17:04;101415.94;;;28.36;37.75
78773;BME280;68111;44.728;11.290;2023-09-12T08:19:32;101422.25;;;28.37;37.77
78773;BME280;68111;44.728;11.290;2023-09-12T08:21:59;101424.00;;;28.38;38.35
78773;BME280;68111;44.728;11.290;2023-09-12T08:24:26;101420.22;;;28.41;38.47
78773;BME280;68111;44.728;11.290;2023-09-12T08:26:52;101423.63;;;28.44;38.15
78773;BME280;68111;44.728;11.290;2023-09-12T08:29:19;101425.38;;;28.45;38.35
78773;BME280;68111;44.728;11.290;2023-09-12T08:31:46;101417.78;;;28.50;38.05
78773;BME280;68111;44.728;11.290;2023-09-12T08:34:13;101420.22;;;28.55;37.93
78773;BME280;68111;44.728;11.290;2023-09-12T08:36:40;101422.66;;;28.59;37.81
78773;BME280;68111;44.728;11.290;2023-09-12T08:39:12;101424.25;;;28.63;37.75
78773;BME280;68111;44.728;11.290;2023-09-12T08:41:39;101413.94;;;28.68;37.66
78773;BME280;68111;44.728;11.290;2023-09-12T08:44:07;101414.53;;;28.74;37.55
78773;BME280;68111;44.728;11.290;2023-09-12T08:46:33;101411.44;;;28.80;37.83
78773;BME280;68111;44.728;11.290;2023-09-12T08:49:00;101406.59;;;28.85;38.07
78773;BME280;68111;44.728;11.290;2023-09-12T08:51:27;101413.41;;;28.92;37.93
78773;BME280;68111;44.728;11.290;2023-09-12T08:53:54;101405.81;;;28.97;37.83
78773;BME280;68111;44.728;11.290;2023-09-12T08:56:21;101410.97;;;29.02;37.33
78773;BME280;68111;44.728;11.290;2023-09-12T08:58:48;101412.31;;;29.09;37.47
78773;BME280;68111;44.728;11.290;2023-09-12T09:01:18;101413.75;;;29.14;37.75
78773;BME280;68111;44.728;11.290;2023-09-12T09:03:46;101413.69;;;29.57;37.70
78773;BME280;68111;44.728;11.290;2023-09-12T09:06:14;101406.19;;;31.29;35.95
78773;BME280;68111;44.728;11.290;2023-09-12T09:08:43;101405.53;;;33.99;32.44
78773;BME280;68111;44.728;11.290;2023-09-12T09:11:11;101419.47;;;36.58;29.25
78773;BME280;68111;44.728;11.290;2023-09-12T09:13:38;101413.97;;;38.74;26.07
78773;BME280;68111;44.728;11.290;2023-09-12T09:18:56;101417.19;;;41.41;21.98
78773;BME280;68111;44.728;11.290;2023-09-12T09:21:29;101420.88;;;42.18;21.21
78773;BME280;68111;44.728;11.290;2023-09-12T09:24:01;101409.09;;;42.69;20.54
78773;BME280;68111;44.728;11.290;2023-09-12T09:26:44;101402.53;;;43.29;19.50
78773;BME280;68111;44.728;11.290;2023-09-12T09:29:16;101396.91;;;43.80;18.90
78773;BME280;68111;44.728;11.290;2023-09-12T09:31:46;101393.75;;;44.25;18.24
78773;BME280;68111;44.728;11.290;2023-09-12T09:34:16;101391.84;;;44.54;17.85
78773;BME280;68111;44.728;11.290;2023-09-12T09:36:46;101392.03;;;44.52;17.74
78773;BME280;68111;44.728;11.290;2023-09-12T09:39:13;101403.06;;;44.39;17.53
78773;BME280;68111;44.728;11.290;2023-09-12T09:41:40;101389.34;;;44.38;17.66
78773;BME280;68111;44.728;11.290;2023-09-12T09:44:08;101392.59;;;44.20;17.00
78773;BME280;68111;44.728;11.290;2023-09-12T09:46:36;101392.38;;;44.00;17.53
78773;BME280;68111;44.728;11.290;2023-09-12T09:49:03;101394.06;;;43.94;18.08
78773;BME280;68111;44.728;11.290;2023-09-12T09:51:33;101381.31;;;43.85;17.38
78773;BME280;68111;44.728;11.290;2023-09-12T09:54:07;101386.16;;;43.77;17.56
78773;BME280;68111;44.728;11.290;2023-09-12T09:56:47;101389.97;;;43.54;17.56
78773;BME280;68111;44.728;11.290;2023-09-12T09:59:19;101384.38;;;43.18;17.78
78773;BME280;68111;44.728;11.290;2023-09-12T10:01:49;101381.09;;;42.56;18.11
78773;BME280;68111;44.728;11.290;2023-09-12T10:04:16;101388.50;;;42.03;18.20
78773;BME280;68111;44.728;11.290;2023-09-12T10:06:46;101379.47;;;41.63;19.13
78773;BME280;68111;44.728;11.290;2023-09-12T10:09:14;101379.59;;;41.31;19.35
78773;BME280;68111;44.728;11.290;2023-09-12T10:11:42;101378.50;;;41.01;19.26
78773;BME280;68111;44.728;11.290;2023-09-12T10:14:11;101374.75;;;40.85;19.77
78773;BME280;68111;44.728;11.290;2023-09-12T10:16:45;101385.00;;;40.69;20.00
78773;BME280;68111;44.728;11.290;2023-09-12T10:19:21;101374.84;;;40.45;19.81
78773;BME280;68111;44.728;11.290;2023-09-12T10:24:35;101370.13;;;39.56;20.30
78773;BME280;68111;44.728;11.290;2023-09-12T10:27:02;101368.28;;;39.30;20.35
78773;BME280;68111;44.728;11.290;2023-09-12T10:29:30;101370.47;;;39.11;20.70
78773;BME280;68111;44.728;11.290;2023-09-12T10:31:57;101369.16;;;38.97;21.05
78773;BME280;68111;44.728;11.290;2023-09-12T10:34:25;101370.16;;;38.88;21.14
78773;BME280;68111;44.728;11.290;2023-09-12T10:36:54;101369.41;;;38.78;21.09
78773;BME280;68111;44.728;11.290;2023-09-12T10:39:22;101367.66;;;38.68;21.08
78773;BME280;68111;44.728;11.290;2023-09-12T10:41:51;101365.28;;;38.56;21.28
78773;BME280;68111;44.728;11.290;2023-09-12T10:44:19;101363.41;;;38.30;21.59
78773;BME280;68111;44.728;11.290;2023-09-12T10:46:48;101361.41;;;38.15;21.94
78773;BME280;68111;44.728;11.290;2023-09-12T10:49:17;101354.53;;;38.01;21.67
78773;BME280;68111;44.728;11.290;2023-09-12T10:51:47;101356.84;;;37.88;22.18
78773;BME280;68111;44.728;11.290;2023-09-12T10:54:16;101361.47;;;37.69;22.48
78773;BME280;68111;44.728;11.290;2023-09-12T10:57:09;101355.59;;;37.37;22.97
78773;BME280;68111;44.728;11.290;2023-09-12T11:02:36;101357.28;;;36.93;23.65
78773;BME280;68111;44.728;11.290;2023-09-12T11:05:07;101358.63;;;36.89;23.24
78773;BME280;68111;44.728;11.290;2023-09-12T11:07:50;101348.66;;;36.78;23.57
78773;BME280;68111;44.728;11.290;2023-09-12T11:10:18;101348.50;;;36.70;24.12
78773;BME280;68111;44.728;11.290;2023-09-12T11:12:47;101352.94;;;36.53;23.90
78773;BME280;68111;44.728;11.290;2023-09-12T11:15:15;101352.81;;;36.45;23.90
78773;BME280;68111;44.728;11.290;2023-09-12T11:20:58;101343.84;;;36.43;23.67
78773;BME280;68111;44.728;11.290;2023-09-12T11:23:25;101348.75;;;36.39;23.83
78773;BME280;68111;44.728;11.290;2023-09-12T11:26:03;101345.72;;;36.33;24.32
78773;BME280;68111;44.728;11.290;2023-09-12T11:28:32;101352.53;;;36.29;23.99
78773;BME280;68111;44.728;11.290;2023-09-12T11:30:59;101342.50;;;36.28;24.18
78773;BME280;68111;44.728;11.290;2023-09-12T11:33:26;101338.31;;;36.23;24.19
78773;BME280;68111;44.728;11.290;2023-09-12T11:35:54;101338.19;;;36.15;24.21
78773;BME280;68111;44.728;11.290;2023-09-12T11:38:31;101336.91;;;36.10;24.12
78773;BME280;68111;44.728;11.290;2023-09-12T11:40:59;101332.56;;;36.07;24.14
78773;BME280;68111;44.728;11.290;2023-09-12T11:43:27;101332.00;;;36.04;23.89
78773;BME280;68111;44.728;11.290;2023-09-12T11:45:55;101326.50;;;35.94;24.40
78773;BME280;68111;44.728;11.290;2023-09-12T11:48:23;101328.41;;;35.84;24.22
78773;BME280;68111;44.728;11.290;2023-09-12T11:50:54;101316.94;;;35.79;23.60
78773;BME280;68111;44.728;11.290;2023-09-12T11:53:24;101319.97;;;35.76;23.88
78773;BME280;68111;44.728;11.290;2023-09-12T11:55:59;101317.50;;;35.73;23.47
78773;BME280;68111;44.728;11.290;2023-09-12T11:58:26;101309.69;;;35.78;23.72
78773;BME280;68111;44.728;11.290;2023-09-12T12:00:55;101308.28;;;35.83;23.79
78773;BME280;68111;44.728;11.290;2023-09-12T12:03:24;101306.38;;;35.84;24.02
78773;BME280;68111;44.728;11.290;2023-09-12T12:05:53;101305.66;;;35.82;24.06
78773;BME280;68111;44.728;11.290;2023-09-12T12:08:21;101310.69;;;35.77;24.14
78773;BME280;68111;44.728;11.290;2023-09-12T12:10:58;101308.09;;;35.75;23.83
78773;BME280;68111;44.728;11.290;2023-09-12T12:13:25;101303.75;;;35.73;24.15
78773;BME280;68111;44.728;11.290;2023-09-12T12:15:55;101300.28;;;35.71;23.85
78773;BME280;68111;44.728;11.290;2023-09-12T12:18:23;101299.00;;;35.65;23.95
78773;BME280;68111;44.728;11.290;2023-09-12T12:20:50;101299.84;;;35.56;23.67
78773;BME280;68111;44.728;11.290;2023-09-12T12:23:17;101293.63;;;35.44;24.13
78773;BME280;68111;44.728;11.290;2023-09-12T12:25:43;101297.53;;;35.32;23.85
78773;BME280;68111;44.728;11.290;2023-09-12T12:28:10;101290.84;;;35.15;24.54
78773;BME280;68111;44.728;11.290;2023-09-12T12:30:37;101289.34;;;35.02;24.49
78773;BME280;68111;44.728;11.290;2023-09-12T12:33:08;101292.47;;;34.87;24.39
78773;BME280;68111;44.728;11.290;2023-09-12T12:36:05;101285.78;;;34.80;25.08
78773;BME280;68111;44.728;11.290;2023-09-12T12:38:37;101283.91;;;34.81;25.14
78773;BME280;68111;44.728;11.290;2023-09-12T12:41:30;101280.91;;;34.84;25.27
78773;BME280;68111;44.728;11.290;2023-09-12T12:44:16;101278.31;;;34.92;25.13
78773;BME280;68111;44.728;11.290;2023-09-12T12:46:53;101273.41;;;34.95;24.69
78773;BME280;68111;44.728;11.290;2023-09-12T12:49:21;101268.63;;;34.97;25.05
78773;BME280;68111;44.728;11.290;2023-09-12T12:51:48;101269.38;;;35.00;24.93
78773;BME280;68111;44.728;11.290;2023-09-12T12:54:15;101274.88;;;35.00;24.97
78773;BME280;68111;44.728;11.290;2023-09-12T12:56:43;101273.13;;;34.98;25.14
78773;BME280;68111;44.728;11.290;2023-09-12T12:59:12;101274.13;;;34.97;24.79
78773;BME280;68111;44.728;11.290;2023-09-12T13:01:39;101264.16;;;34.96;24.69